createdAt,value
2022-10-12T00:00:11.681Z,0.62
2022-10-12T00:02:42.460Z,0.58
2022-10-12T00:05:09.982Z,0.54
2022-10-12T00:07:37.307Z,0.56
2022-10-12T00:10:04.909Z,0.56
2022-10-12T00:12:31.963Z,0.49
2022-10-12T00:14:58.947Z,0.45
2022-10-12T00:17:25.850Z,0.46
2022-10-12T00:19:52.819Z,0.42
2022-10-12T00:22:19.875Z,0.37
2022-10-12T00:24:46.730Z,0.39
2022-10-12T00:27:13.618Z,0.34
2022-10-12T00:29:40.602Z,0.31
2022-10-12T00:32:07.431Z,0.28
2022-10-12T00:34:37.176Z,0.30
2022-10-12T00:37:04.234Z,0.27
2022-10-12T00:39:31.107Z,0.31
2022-10-12T00:41:58.747Z,0.32
2022-10-12T00:44:38.431Z,0.33
2022-10-12T00:47:16.236Z,0.27
2022-10-12T00:49:49.108Z,0.21
2022-10-12T00:52:18.108Z,0.21
2022-10-12T00:54:47.436Z,0.24
2022-10-12T00:57:15.517Z,0.22
2022-10-12T00:59:48.243Z,0.20
2022-10-12T01:02:15.611Z,0.20
2022-10-12T01:04:43.181Z,0.20
2022-10-12T01:07:10.182Z,0.20
2022-10-12T01:09:37.278Z,0.21
2022-10-12T01:12:05.527Z,0.18
2022-10-12T01:14:32.467Z,0.18
2022-10-12T01:17:18.114Z,0.26
2022-10-12T01:19:59.327Z,0.26
2022-10-12T01:22:26.485Z,0.18
2022-10-12T01:25:02.018Z,0.22
2022-10-12T01:27:50.090Z,0.21
2022-10-12T01:30:19.009Z,0.19
2022-10-12T01:32:51.883Z,0.16
2022-10-12T01:35:28.054Z,0.14
2022-10-12T01:38:05.192Z,0.12
2022-10-12T01:40:59.817Z,0.12
2022-10-12T01:43:37.075Z,0.09
2022-10-12T01:46:08.376Z,0.07
2022-10-12T01:48:35.451Z,0.05
2022-10-12T01:51:03.000Z,-0.04
2022-10-12T01:53:32.995Z,-0.07
2022-10-12T01:56:13.768Z,-0.09
2022-10-12T01:58:49.689Z,-0.15
2022-10-12T02:01:47.496Z,-0.30
2022-10-12T02:04:26.754Z,-0.36
2022-10-12T02:06:59.862Z,-0.45
2022-10-12T02:09:29.023Z,-0.50
2022-10-12T02:11:58.810Z,-0.47
2022-10-12T02:14:38.855Z,-0.43
2022-10-12T02:17:08.419Z,-0.50
2022-10-12T02:19:41.042Z,-0.57
2022-10-12T02:22:36.672Z,-0.59
2022-10-12T02:25:07.148Z,-0.58
2022-10-12T02:27:36.500Z,-0.57
2022-10-12T02:30:04.307Z,-0.59
2022-10-12T02:32:46.926Z,-0.58
2022-10-12T02:35:32.065Z,-0.51
2022-10-12T02:38:40.778Z,-0.52
2022-10-12T02:41:21.322Z,-0.49
2022-10-12T02:43:52.727Z,-0.55
2022-10-12T02:46:23.690Z,-0.56
2022-10-12T02:48:51.052Z,-0.60
2022-10-12T02:51:21.646Z,-0.59
2022-10-12T02:53:49.881Z,-0.65
2022-10-12T02:56:17.068Z,-0.60
2022-10-12T02:58:48.226Z,-0.59
2022-10-12T03:01:18.882Z,-0.64
2022-10-12T03:03:46.171Z,-0.69
2022-10-12T03:06:14.348Z,-0.69
2022-10-12T03:08:41.386Z,-0.64
2022-10-12T03:11:09.640Z,-0.60
2022-10-12T03:13:36.541Z,-0.58
2022-10-12T03:16:07.762Z,-0.59
2022-10-12T03:18:35.079Z,-0.59
2022-10-12T03:21:02.238Z,-0.64
2022-10-12T03:23:29.296Z,-0.70
2022-10-12T03:25:58.773Z,-0.67
2022-10-12T03:28:25.871Z,-0.66
2022-10-12T03:30:52.902Z,-0.62
2022-10-12T03:33:20.330Z,-0.65
2022-10-12T03:35:47.707Z,-0.59
2022-10-12T03:38:15.417Z,-0.56
2022-10-12T03:40:42.493Z,-0.54
2022-10-12T03:43:09.414Z,-0.44
2022-10-12T03:45:36.415Z,-0.38
2022-10-12T03:48:05.300Z,-0.31
2022-10-12T03:50:35.018Z,-0.23
2022-10-12T03:53:05.658Z,-0.17
2022-10-12T03:55:33.465Z,-0.07
2022-10-12T03:58:00.659Z,-0.01
2022-10-12T04:00:28.690Z,0.07
2022-10-12T04:02:58.858Z,0.11
2022-10-12T04:05:26.875Z,0.21
2022-10-12T04:07:53.948Z,0.26
2022-10-12T04:10:21.242Z,0.30
2022-10-12T04:12:48.188Z,0.43
2022-10-12T04:15:15.491Z,0.53
2022-10-12T04:17:43.243Z,0.60
2022-10-12T04:20:12.647Z,0.70
2022-10-12T04:22:40.157Z,0.84
2022-10-12T04:25:07.632Z,0.96
2022-10-12T04:27:35.154Z,1.05
2022-10-12T04:30:05.213Z,1.21
2022-10-12T04:32:32.361Z,1.33
2022-10-12T04:34:59.498Z,1.41
2022-10-12T04:37:28.045Z,1.55
2022-10-12T04:39:56.133Z,1.76
2022-10-12T04:42:23.145Z,1.94
2022-10-12T04:44:50.052Z,2.02
2022-10-12T04:47:17.585Z,2.24
2022-10-12T04:49:44.576Z,2.42
2022-10-12T04:52:11.661Z,2.60
2022-10-12T04:54:38.743Z,2.71
2022-10-12T04:57:05.679Z,2.79
2022-10-12T04:59:32.918Z,2.79
2022-10-12T05:01:59.867Z,2.79
2022-10-12T05:04:26.889Z,2.80
2022-10-12T05:06:54.638Z,2.83
2022-10-12T05:09:21.680Z,2.90
2022-10-12T05:11:48.708Z,2.92
2022-10-12T05:14:15.674Z,2.96
2022-10-12T05:16:43.671Z,2.98
2022-10-12T05:19:11.217Z,2.95
2022-10-12T05:21:41.773Z,2.90
2022-10-12T05:24:10.860Z,2.97
2022-10-12T05:26:42.805Z,2.98
2022-10-12T05:29:09.835Z,2.95
2022-10-12T05:31:37.005Z,2.96
2022-10-12T05:34:04.114Z,3.06
2022-10-12T05:36:31.479Z,3.12
2022-10-12T05:38:58.573Z,3.18
2022-10-12T05:41:28.119Z,3.22
2022-10-12T05:43:55.670Z,3.37
2022-10-12T05:46:23.095Z,3.67
2022-10-12T05:48:50.184Z,3.84
2022-10-12T05:51:17.151Z,3.97
2022-10-12T05:53:46.869Z,4.01
2022-10-12T05:56:14.478Z,3.86
2022-10-12T05:58:42.375Z,3.83
2022-10-12T06:01:12.596Z,4.00
2022-10-12T06:03:40.345Z,4.24
2022-10-12T06:06:09.164Z,4.29
2022-10-12T06:08:36.587Z,4.52
2022-10-12T06:11:07.965Z,4.72
2022-10-12T06:13:34.912Z,4.88
2022-10-12T06:16:01.911Z,5.05
2022-10-12T06:18:29.135Z,5.16
2022-10-12T06:23:43.259Z,5.36
2022-10-12T06:26:10.407Z,5.36
2022-10-12T06:28:43.707Z,5.34
2022-10-12T06:31:11.303Z,5.36
2022-10-12T06:33:38.302Z,5.39
2022-10-12T06:36:05.515Z,5.43
2022-10-12T06:38:32.535Z,5.42
2022-10-12T06:40:59.484Z,5.46
2022-10-12T06:43:26.511Z,5.53
2022-10-12T06:45:53.646Z,5.64
2022-10-12T06:48:20.619Z,5.74
2022-10-12T06:50:48.129Z,5.87
2022-10-12T06:53:15.120Z,5.99
2022-10-12T06:55:42.056Z,6.13
2022-10-12T06:58:09.001Z,6.25
2022-10-12T07:00:36.326Z,6.49
2022-10-12T07:03:06.338Z,6.70
2022-10-12T07:05:35.244Z,6.94
2022-10-12T07:08:02.723Z,7.13
2022-10-12T07:10:32.559Z,7.32
2022-10-12T07:12:59.548Z,7.53
2022-10-12T07:15:26.452Z,7.68
2022-10-12T07:17:53.386Z,7.81
2022-10-12T07:20:20.413Z,7.95
2022-10-12T07:22:47.531Z,8.10
2022-10-12T07:25:14.479Z,8.28
2022-10-12T07:27:49.802Z,8.50
2022-10-12T07:30:16.923Z,8.78
2022-10-12T07:32:44.963Z,9.01
2022-10-12T07:35:12.220Z,9.37
2022-10-12T07:37:39.378Z,9.63
2022-10-12T07:40:07.259Z,9.82
2022-10-12T07:42:34.198Z,10.28
2022-10-12T07:45:03.626Z,10.79
2022-10-12T07:47:35.904Z,10.95
2022-10-12T07:50:03.095Z,11.39
2022-10-12T07:52:34.119Z,11.87
2022-10-12T07:55:03.863Z,12.15
2022-10-12T07:57:35.976Z,12.45
2022-10-12T08:00:03.067Z,13.05
2022-10-12T08:02:39.092Z,13.64
2022-10-12T08:05:09.319Z,14.24
2022-10-12T08:07:36.753Z,13.80
2022-10-12T08:10:07.323Z,13.57
2022-10-12T08:12:34.282Z,13.26
2022-10-12T08:15:01.204Z,12.86
2022-10-12T08:17:28.228Z,12.70
2022-10-12T08:19:56.251Z,12.74
2022-10-12T08:22:25.015Z,12.89
2022-10-12T08:24:52.044Z,12.93
2022-10-12T08:27:19.129Z,12.85
2022-10-12T08:29:46.870Z,12.72
2022-10-12T08:32:13.862Z,12.57
2022-10-12T08:34:41.008Z,12.39
2022-10-12T08:37:08.055Z,12.51
2022-10-12T08:39:35.124Z,12.50
2022-10-12T08:42:07.992Z,12.25
2022-10-12T08:44:40.956Z,12.24
2022-10-12T08:47:41.625Z,12.11
2022-10-12T08:50:17.536Z,12.15
2022-10-12T08:52:52.453Z,12.08
2022-10-12T08:55:43.220Z,12.23
2022-10-12T08:58:41.193Z,12.11
2022-10-12T09:01:26.009Z,12.42
2022-10-12T09:04:16.024Z,12.45
2022-10-12T09:06:48.888Z,12.39
2022-10-12T09:09:37.909Z,12.44
2022-10-12T09:12:34.112Z,12.44
2022-10-12T09:15:04.481Z,12.38
2022-10-12T09:17:41.167Z,12.62
2022-10-12T09:20:18.685Z,12.87
2022-10-12T09:22:50.509Z,13.02
2022-10-12T09:25:32.337Z,13.15
2022-10-12T09:28:37.948Z,13.05
2022-10-12T09:31:10.877Z,12.86
2022-10-12T09:33:57.007Z,12.71
2022-10-12T09:36:26.034Z,12.70
2022-10-12T09:38:53.294Z,12.60
2022-10-12T09:41:23.419Z,12.50
2022-10-12T09:43:54.154Z,12.68
2022-10-12T09:46:32.107Z,12.61
2022-10-12T09:49:00.111Z,12.77
2022-10-12T09:51:28.604Z,12.68
2022-10-12T09:53:57.749Z,12.87
2022-10-12T09:56:29.804Z,13.12
2022-10-12T10:06:08.426Z,13.50
2022-10-12T10:09:01.452Z,14.45
2022-10-12T10:11:31.693Z,13.64
2022-10-12T10:14:00.879Z,13.07
2022-10-12T10:16:29.899Z,12.87
2022-10-12T10:19:01.283Z,12.93
2022-10-12T10:21:36.454Z,12.90
2022-10-12T10:24:07.755Z,13.01
2022-10-12T10:27:04.330Z,14.61
2022-10-12T10:29:35.695Z,15.95
2022-10-12T10:32:26.847Z,18.27
2022-10-12T10:35:05.508Z,17.23
2022-10-12T10:37:33.144Z,17.38
2022-10-12T10:40:00.175Z,17.15
2022-10-12T10:42:29.846Z,16.88
2022-10-12T10:44:59.009Z,18.00
2022-10-12T10:47:26.172Z,17.68
2022-10-12T10:50:04.960Z,16.61
2022-10-12T10:52:36.939Z,17.51
2022-10-12T10:55:19.252Z,18.37
2022-10-12T10:57:59.919Z,18.97
2022-10-12T11:00:44.840Z,19.17
2022-10-12T11:03:12.054Z,19.40
2022-10-12T11:05:44.451Z,19.29
2022-10-12T11:08:29.330Z,19.57
2022-10-12T11:11:11.010Z,19.20
2022-10-12T11:13:45.680Z,19.10
2022-10-12T11:16:33.967Z,19.48
2022-10-12T11:19:06.169Z,18.95
2022-10-12T11:21:39.471Z,18.62
2022-10-12T11:24:13.399Z,18.50
2022-10-12T11:26:49.145Z,18.09
2022-10-12T11:29:18.045Z,17.24
2022-10-12T11:31:55.564Z,17.14
2022-10-12T11:34:24.101Z,16.43
2022-10-12T11:37:19.914Z,15.64
2022-10-12T11:39:51.335Z,14.91
2022-10-12T11:42:30.853Z,14.65
2022-10-12T11:45:00.379Z,14.03
2022-10-12T11:47:36.862Z,13.59
2022-10-12T11:50:28.109Z,13.24
2022-10-12T11:52:55.842Z,12.76
2022-10-12T11:55:55.052Z,12.27
2022-10-12T11:58:36.391Z,11.89
2022-10-12T12:01:32.999Z,11.53
2022-10-12T12:04:29.259Z,11.46
2022-10-12T12:07:00.894Z,11.44
2022-10-12T12:09:50.283Z,11.48
2022-10-12T12:12:26.383Z,11.52
2022-10-12T12:14:53.291Z,11.50
2022-10-12T12:17:20.218Z,11.32
2022-10-12T12:19:52.466Z,11.39
2022-10-12T12:22:27.148Z,11.30
2022-10-12T12:25:10.856Z,11.04
2022-10-12T12:27:45.699Z,10.97
2022-10-12T12:30:18.766Z,10.71
2022-10-12T12:32:55.838Z,10.46
2022-10-12T12:35:32.796Z,10.33
2022-10-12T12:38:15.988Z,10.16
2022-10-12T12:52:48.187Z,10.18
2022-10-12T12:55:35.614Z,9.85
2022-10-12T12:58:12.180Z,9.70
2022-10-12T13:01:00.974Z,9.65
2022-10-12T13:03:44.606Z,9.58
2022-10-12T13:06:29.702Z,9.36
2022-10-12T13:09:02.440Z,9.24
2022-10-12T13:11:41.340Z,9.30
2022-10-12T13:14:49.224Z,9.33
2022-10-12T13:17:37.431Z,9.34
2022-10-12T13:20:25.988Z,9.14
2022-10-12T13:22:54.944Z,9.03
2022-10-12T13:25:32.976Z,8.84
2022-10-12T13:28:03.113Z,8.66
2022-10-12T13:30:39.160Z,8.43
2022-10-12T13:33:10.694Z,8.29
2022-10-12T13:35:52.896Z,8.30
2022-10-12T13:38:26.196Z,8.36
2022-10-12T13:41:12.918Z,8.37
2022-10-12T13:43:48.878Z,8.35
2022-10-12T13:46:37.761Z,8.32
2022-10-12T13:49:17.824Z,8.34
2022-10-12T13:51:47.978Z,8.25
2022-10-12T13:54:22.141Z,8.20
2022-10-12T13:57:01.311Z,8.18
2022-10-12T13:59:31.145Z,8.24
2022-10-12T14:02:03.882Z,8.20
2022-10-12T14:04:33.307Z,8.03
2022-10-12T14:07:04.486Z,7.90
2022-10-12T14:09:41.685Z,7.73
2022-10-12T14:12:10.031Z,7.75
2022-10-12T14:14:37.802Z,7.73
2022-10-12T14:17:04.984Z,7.64
2022-10-12T14:19:41.130Z,7.63
2022-10-12T14:22:08.497Z,7.60
2022-10-12T14:24:36.391Z,7.64
2022-10-12T14:27:05.616Z,7.61
2022-10-12T14:29:44.835Z,7.55
2022-10-12T14:32:11.688Z,7.47
2022-10-12T14:34:49.866Z,7.51
2022-10-12T14:37:16.762Z,7.38
2022-10-12T14:39:45.519Z,7.32
2022-10-12T14:42:19.893Z,7.29
2022-10-12T14:44:46.961Z,7.24
2022-10-12T14:47:35.327Z,7.23
2022-10-12T14:50:07.973Z,7.12
2022-10-12T14:52:44.899Z,7.03
2022-10-12T14:55:17.778Z,6.91
2022-10-12T14:57:44.893Z,6.83
2022-10-12T15:00:16.969Z,6.82
2022-10-12T15:02:45.141Z,6.75
2022-10-12T15:05:14.752Z,6.61
2022-10-12T15:07:45.563Z,6.44
2022-10-12T15:10:13.762Z,6.37
2022-10-12T15:12:41.277Z,6.33
2022-10-12T15:15:42.464Z,6.28
2022-10-12T15:18:09.583Z,6.21
2022-10-12T15:20:37.190Z,6.19
2022-10-12T15:23:04.499Z,6.11
2022-10-12T15:25:56.396Z,6.08
2022-10-12T15:28:24.050Z,6.01
2022-10-12T15:31:16.515Z,5.96
2022-10-12T15:33:38.996Z,5.88
2022-10-12T15:36:06.504Z,5.84
2022-10-12T15:38:34.028Z,5.83
2022-10-12T15:41:01.436Z,5.77
2022-10-12T15:43:28.769Z,5.70
2022-10-12T15:45:56.675Z,5.67
2022-10-12T15:48:23.845Z,5.65
2022-10-12T15:50:50.922Z,5.64
2022-10-12T15:53:21.371Z,5.59
2022-10-12T15:55:50.987Z,5.54
2022-10-12T15:58:18.028Z,5.52
2022-10-12T16:00:45.025Z,5.51
2022-10-12T16:03:21.307Z,5.49
2022-10-12T16:05:51.408Z,5.50
2022-10-12T16:08:19.896Z,5.47
2022-10-12T16:10:47.897Z,5.42
2022-10-12T16:13:15.632Z,5.46
2022-10-12T16:15:43.036Z,5.48
2022-10-12T16:18:11.024Z,5.50
2022-10-12T16:20:39.399Z,5.50
2022-10-12T16:23:08.704Z,5.41
2022-10-12T16:25:36.132Z,5.32
2022-10-12T16:28:03.228Z,5.27
2022-10-12T16:30:30.809Z,5.21
2022-10-12T16:32:57.700Z,5.17
2022-10-12T16:35:26.075Z,5.12
2022-10-12T16:37:53.020Z,5.09
2022-10-12T16:40:20.125Z,5.05
2022-10-12T16:42:53.254Z,5.03
2022-10-12T16:45:21.516Z,4.99
2022-10-12T16:47:56.592Z,5.02
2022-10-12T16:50:24.642Z,4.92
2022-10-12T16:52:52.463Z,4.90
2022-10-12T16:55:20.224Z,4.88
2022-10-12T16:57:47.365Z,4.86
2022-10-12T17:00:18.568Z,4.87
2022-10-12T17:02:48.052Z,4.87
2022-10-12T17:05:15.538Z,4.85
2022-10-12T17:07:48.554Z,4.83
2022-10-12T17:10:15.617Z,4.78
2022-10-12T17:12:42.656Z,4.80
2022-10-12T17:15:10.279Z,4.77
2022-10-12T17:17:37.275Z,4.75
2022-10-12T17:20:05.296Z,4.77
2022-10-12T17:22:32.517Z,4.77
2022-10-12T17:24:59.451Z,4.74
2022-10-12T17:27:29.970Z,4.61
2022-10-12T17:29:59.701Z,4.47
2022-10-12T17:32:27.085Z,4.33
2022-10-12T17:34:54.477Z,4.21
2022-10-12T17:37:22.101Z,4.12
2022-10-12T17:39:54.959Z,4.08
2022-10-12T17:42:23.223Z,4.04
2022-10-12T17:44:50.317Z,3.97
2022-10-12T17:47:17.621Z,3.91
2022-10-12T17:49:44.861Z,3.92
2022-10-12T17:52:11.794Z,3.96
2022-10-12T17:54:45.852Z,3.97
2022-10-12T17:57:26.295Z,4.06
2022-10-12T17:59:54.072Z,4.01
2022-10-12T18:02:22.342Z,3.98
2022-10-12T18:04:49.317Z,4.09
2022-10-12T18:07:16.660Z,4.11
2022-10-12T18:09:49.534Z,4.16
2022-10-12T18:12:19.244Z,4.19
2022-10-12T18:14:46.489Z,4.28
2022-10-12T18:17:13.477Z,4.43
2022-10-12T18:22:35.365Z,4.46
2022-10-12T18:25:02.641Z,4.45
2022-10-12T18:27:30.445Z,4.46
2022-10-12T18:29:58.545Z,4.50
2022-10-12T18:32:27.444Z,4.61
2022-10-12T18:34:54.384Z,4.72
2022-10-12T18:37:23.166Z,4.75
2022-10-12T18:39:50.239Z,4.84
2022-10-12T18:42:17.484Z,4.88
2022-10-12T18:44:45.127Z,4.87
2022-10-12T18:47:12.065Z,4.85
2022-10-12T18:49:40.286Z,4.82
2022-10-12T18:52:07.178Z,4.69
2022-10-12T18:54:34.143Z,4.66
2022-10-12T18:57:01.037Z,4.58
2022-10-12T18:59:30.211Z,4.53
2022-10-12T19:01:57.352Z,4.51
2022-10-12T19:04:24.310Z,4.56
2022-10-12T19:06:54.369Z,4.56
2022-10-12T19:09:24.574Z,4.54
2022-10-12T19:11:51.532Z,4.54
2022-10-12T19:14:18.449Z,4.54
2022-10-12T19:16:45.697Z,4.52
2022-10-12T19:19:20.479Z,4.50
2022-10-12T19:22:42.771Z,4.47
2022-10-12T19:25:13.525Z,4.37
2022-10-12T19:27:40.500Z,4.36
2022-10-12T19:30:08.112Z,4.35
2022-10-12T19:32:40.152Z,4.37
2022-10-12T19:35:07.434Z,4.41
2022-10-12T19:37:36.247Z,4.44
2022-10-12T19:40:07.626Z,4.47
2022-10-12T19:42:35.027Z,4.53
2022-10-12T19:45:02.668Z,4.56
2022-10-12T19:47:34.684Z,4.56
2022-10-12T19:50:02.170Z,4.61
2022-10-12T19:52:30.553Z,4.62
2022-10-12T19:54:57.500Z,4.65
2022-10-12T19:57:25.207Z,4.68
2022-10-12T19:59:52.175Z,4.70
2022-10-12T20:02:19.556Z,4.71
2022-10-12T20:04:46.757Z,4.74
2022-10-12T20:07:13.758Z,4.72
2022-10-12T20:09:41.095Z,4.72
2022-10-12T20:12:08.289Z,4.69
2022-10-12T20:14:35.219Z,4.65
2022-10-12T20:17:02.108Z,4.60
2022-10-12T20:19:29.098Z,4.51
2022-10-12T20:21:56.075Z,4.40
2022-10-12T20:24:23.413Z,4.27
2022-10-12T20:26:50.271Z,4.16
2022-10-12T20:29:17.359Z,4.06
2022-10-12T20:31:44.420Z,3.94
2022-10-12T20:34:11.306Z,3.85
2022-10-12T20:36:38.231Z,3.81
2022-10-12T20:39:05.258Z,3.82
2022-10-12T20:41:32.718Z,3.89
2022-10-12T20:44:00.672Z,3.91
2022-10-12T20:46:28.704Z,3.95
2022-10-12T20:48:58.753Z,4.01
2022-10-12T20:51:29.227Z,4.06
2022-10-12T20:53:59.354Z,4.00
2022-10-12T20:56:27.924Z,3.88
2022-10-12T20:58:58.178Z,3.78
2022-10-12T21:01:28.798Z,3.67
2022-10-12T21:03:55.965Z,3.60
2022-10-12T21:06:23.973Z,3.66
2022-10-12T21:08:52.708Z,3.67
2022-10-12T21:11:20.258Z,3.65
2022-10-12T21:13:47.499Z,3.67
2022-10-12T21:16:14.886Z,3.61
2022-10-12T21:18:42.374Z,3.57
2022-10-12T21:21:18.024Z,3.59
2022-10-12T21:23:51.692Z,3.55
2022-10-12T21:26:20.627Z,3.62
2022-10-12T21:28:47.643Z,3.63
2022-10-12T21:31:16.081Z,3.70
2022-10-12T21:33:43.304Z,3.85
2022-10-12T21:36:15.858Z,3.95
2022-10-12T21:38:43.156Z,3.98
2022-10-12T21:41:11.618Z,4.02
2022-10-12T21:43:39.315Z,4.06
2022-10-12T21:46:08.440Z,4.18
2022-10-12T21:48:35.902Z,4.30
2022-10-12T21:51:03.879Z,4.43
2022-10-12T21:53:31.112Z,4.50
2022-10-12T21:55:58.210Z,4.60
2022-10-12T21:58:25.106Z,4.67
2022-10-12T22:00:54.111Z,4.72
2022-10-12T22:03:21.200Z,4.77
2022-10-12T22:05:48.088Z,4.82
2022-10-12T22:08:15.004Z,4.86
2022-10-12T22:10:42.059Z,4.90
2022-10-12T22:13:09.139Z,4.95
2022-10-12T22:15:36.103Z,4.98
2022-10-12T22:18:11.640Z,4.97
2022-10-12T22:20:38.963Z,4.99
2022-10-12T22:23:05.826Z,5.05
2022-10-12T22:25:32.685Z,5.05
2022-10-12T22:27:59.789Z,5.07
2022-10-12T22:30:29.483Z,5.07
2022-10-12T22:32:56.419Z,5.08
2022-10-12T22:35:23.547Z,5.09
2022-10-12T22:37:51.260Z,5.13
2022-10-12T22:40:18.132Z,5.14
2022-10-12T22:42:45.080Z,5.12
2022-10-12T22:45:12.280Z,5.13
2022-10-12T22:47:39.506Z,5.14
2022-10-12T22:50:07.060Z,5.12
2022-10-12T22:52:34.425Z,5.13
2022-10-12T22:55:01.442Z,5.10
2022-10-12T22:57:30.732Z,5.11
2022-10-12T22:59:57.594Z,5.11
2022-10-12T23:02:24.488Z,5.11
2022-10-12T23:04:51.344Z,5.14
2022-10-12T23:07:18.206Z,5.13
2022-10-12T23:09:45.156Z,5.06
2022-10-12T23:12:12.033Z,5.12
2022-10-12T23:14:38.911Z,5.13
2022-10-12T23:17:05.888Z,5.11
2022-10-12T23:19:32.764Z,5.09
2022-10-12T23:22:01.309Z,5.08
2022-10-12T23:24:28.811Z,5.09
2022-10-12T23:26:57.659Z,5.11
2022-10-12T23:29:24.629Z,5.09
2022-10-12T23:31:51.606Z,5.07
2022-10-12T23:34:18.498Z,5.07
2022-10-12T23:36:46.359Z,5.04
2022-10-12T23:39:13.614Z,5.05
2022-10-12T23:41:40.539Z,5.03
2022-10-12T23:44:07.366Z,5.03
2022-10-12T23:46:34.862Z,5.01
2022-10-12T23:49:01.803Z,5.01
2022-10-12T23:51:28.796Z,4.98
2022-10-12T23:53:55.932Z,4.98
2022-10-12T23:56:22.942Z,4.96
2022-10-12T23:58:49.894Z,4.94
